createdAt,value
2019-03-09T00:00:08.933Z,9.53
2019-03-09T00:02:37.994Z,4.07
2019-03-09T00:05:07.175Z,6.30
2019-03-09T00:07:36.239Z,7.03
2019-03-09T00:10:05.669Z,6.73
2019-03-09T00:12:34.738Z,5.90
2019-03-09T00:15:06.468Z,8.10
2019-03-09T00:17:35.618Z,7.53
2019-03-09T00:20:04.710Z,5.03
2019-03-09T00:22:33.791Z,7.97
2019-03-09T00:25:13.799Z,6.47
2019-03-09T00:27:47.406Z,4.40
2019-03-09T00:30:25.830Z,6.60
2019-03-09T00:32:54.938Z,4.50
2019-03-09T00:35:24.067Z,5.50
2019-03-09T00:37:53.156Z,3.50
2019-03-09T00:40:23.420Z,4.43
2019-03-09T00:42:52.587Z,4.33
2019-03-09T00:45:23.230Z,5.33
2019-03-09T00:47:55.496Z,4.63
2019-03-09T00:50:25.613Z,7.27
2019-03-09T00:52:54.623Z,5.53
2019-03-09T00:55:23.720Z,6.07
2019-03-09T00:57:52.843Z,5.10
2019-03-09T01:00:21.935Z,5.53
2019-03-09T01:02:51.309Z,5.47
2019-03-09T01:05:20.460Z,6.40
2019-03-09T01:07:49.518Z,5.13
2019-03-09T01:10:18.607Z,7.10
2019-03-09T01:12:47.617Z,3.30
2019-03-09T01:15:16.672Z,8.77
2019-03-09T01:17:46.413Z,6.93
2019-03-09T01:20:16.368Z,5.57
2019-03-09T01:22:45.458Z,4.53
2019-03-09T01:25:14.530Z,4.83
2019-03-09T01:27:43.572Z,9.77
2019-03-09T01:30:15.279Z,7.43
2019-03-09T01:32:44.317Z,3.87
2019-03-09T01:35:13.440Z,6.13
2019-03-09T01:37:42.451Z,5.83
2019-03-09T01:40:12.183Z,5.27
2019-03-09T01:42:41.191Z,6.97
2019-03-09T01:45:11.506Z,7.67
2019-03-09T01:47:40.540Z,3.57
2019-03-09T01:50:09.699Z,7.10
2019-03-09T01:52:38.783Z,4.80
2019-03-09T01:55:07.919Z,6.73
2019-03-09T01:57:37.009Z,4.60
2019-03-09T02:00:06.534Z,2.50
2019-03-09T02:02:35.622Z,6.07
2019-03-09T02:05:04.973Z,3.67
2019-03-09T02:07:34.074Z,8.07
2019-03-09T02:10:03.159Z,7.57
2019-03-09T02:12:32.998Z,3.30
2019-03-09T02:15:02.153Z,6.03
2019-03-09T02:17:33.253Z,2.97
2019-03-09T02:20:02.370Z,4.30
2019-03-09T02:22:32.451Z,6.00
2019-03-09T02:25:01.540Z,6.07
2019-03-09T02:27:30.598Z,5.93
2019-03-09T02:29:59.621Z,5.33
2019-03-09T02:32:28.744Z,6.70
2019-03-09T02:34:57.809Z,3.03
2019-03-09T02:37:26.896Z,5.13
2019-03-09T02:40:04.963Z,7.90
2019-03-09T02:42:34.071Z,4.67
2019-03-09T02:45:04.001Z,8.27
2019-03-09T02:47:33.039Z,8.23
2019-03-09T02:50:03.781Z,5.87
2019-03-09T02:52:32.919Z,2.43
2019-03-09T02:55:01.910Z,6.03
2019-03-09T02:57:31.003Z,4.83
2019-03-09T03:00:01.247Z,7.33
2019-03-09T03:02:49.735Z,5.93
2019-03-09T03:05:19.907Z,4.03
2019-03-09T03:07:48.997Z,6.87
2019-03-09T03:10:18.034Z,11.03
2019-03-09T03:12:47.238Z,3.20
2019-03-09T03:15:29.534Z,5.67
2019-03-09T03:17:58.916Z,7.23
2019-03-09T03:20:28.050Z,10.43
2019-03-09T03:22:57.092Z,4.87
2019-03-09T03:25:26.170Z,4.63
2019-03-09T03:27:55.236Z,5.13
2019-03-09T03:30:24.263Z,3.37
2019-03-09T03:32:54.770Z,5.77
2019-03-09T03:35:23.799Z,3.17
2019-03-09T03:37:52.842Z,5.00
2019-03-09T03:40:21.923Z,4.63
2019-03-09T03:42:50.973Z,5.23
2019-03-09T03:45:20.015Z,6.70
2019-03-09T03:47:49.063Z,5.90
2019-03-09T03:50:18.080Z,3.13
2019-03-09T03:52:47.142Z,4.10
2019-03-09T03:55:16.248Z,4.40
2019-03-09T03:57:45.344Z,2.70
2019-03-09T04:00:14.375Z,3.97
2019-03-09T04:02:43.485Z,5.53
2019-03-09T04:05:12.561Z,5.37
2019-03-09T04:07:41.586Z,5.83
2019-03-09T04:10:10.690Z,3.00
2019-03-09T04:12:39.730Z,4.37
2019-03-09T04:15:08.781Z,4.13
2019-03-09T04:17:37.843Z,3.13
2019-03-09T04:20:07.035Z,3.73
2019-03-09T04:22:36.084Z,3.37
2019-03-09T04:25:05.445Z,4.07
2019-03-09T04:27:34.470Z,2.87
2019-03-09T04:30:03.529Z,6.57
2019-03-09T04:32:32.553Z,5.57
2019-03-09T04:35:01.577Z,2.30
2019-03-09T04:37:30.615Z,4.70
2019-03-09T04:39:59.700Z,3.67
2019-03-09T04:42:28.710Z,3.43
2019-03-09T04:44:57.778Z,2.80
2019-03-09T04:47:26.797Z,2.60
2019-03-09T04:49:55.885Z,3.07
2019-03-09T04:52:24.906Z,4.13
2019-03-09T04:54:53.953Z,2.43
2019-03-09T04:57:23.024Z,4.67
2019-03-09T04:59:52.244Z,4.23
2019-03-09T05:02:21.309Z,3.40
2019-03-09T05:04:51.855Z,2.57
2019-03-09T05:08:08.406Z,2.73
2019-03-09T05:10:49.939Z,2.00
2019-03-09T05:13:42.598Z,3.10
2019-03-09T05:16:11.637Z,1.20
2019-03-09T05:18:40.662Z,2.53
2019-03-09T05:21:09.765Z,1.30
2019-03-09T05:23:41.184Z,1.60
2019-03-09T05:26:10.249Z,4.03
2019-03-09T05:28:40.821Z,1.20
2019-03-09T05:31:09.907Z,1.37
2019-03-09T05:33:40.703Z,2.10
2019-03-09T05:36:09.775Z,1.30
2019-03-09T05:38:38.782Z,1.00
2019-03-09T05:41:07.866Z,2.87
2019-03-09T05:43:36.973Z,1.93
2019-03-09T05:46:06.111Z,2.00
2019-03-09T05:48:35.261Z,1.00
2019-03-09T05:51:06.512Z,5.00
2019-03-09T05:53:36.671Z,1.20
2019-03-09T05:56:07.720Z,1.30
2019-03-09T05:58:36.502Z,1.17
2019-03-09T06:01:05.599Z,1.07
2019-03-09T06:03:37.073Z,1.17
2019-03-09T06:06:15.039Z,1.20
2019-03-09T06:08:44.412Z,0.97
2019-03-09T06:11:13.449Z,1.13
2019-03-09T06:13:42.542Z,1.60
2019-03-09T06:16:13.694Z,1.70
2019-03-09T06:18:44.324Z,1.93
2019-03-09T06:21:13.495Z,1.83
2019-03-09T06:23:42.640Z,1.90
2019-03-09T06:26:11.805Z,1.07
2019-03-09T06:28:40.965Z,1.20
2019-03-09T06:31:09.996Z,2.33
2019-03-09T06:33:39.971Z,2.73
2019-03-09T06:36:28.762Z,1.90
2019-03-09T06:39:00.542Z,1.13
2019-03-09T06:41:36.932Z,1.13
2019-03-09T06:44:06.003Z,1.67
2019-03-09T06:46:35.310Z,1.40
2019-03-09T06:49:05.680Z,1.50
2019-03-09T06:51:36.740Z,2.50
2019-03-09T06:54:05.771Z,1.70
2019-03-09T06:56:34.821Z,1.53
2019-03-09T06:59:06.287Z,1.20
2019-03-09T07:01:37.788Z,2.50
2019-03-09T07:04:06.814Z,2.50
2019-03-09T07:06:35.860Z,1.50
2019-03-09T07:09:05.758Z,1.60
2019-03-09T07:11:34.826Z,1.93
2019-03-09T07:14:39.926Z,1.60
2019-03-09T07:17:09.041Z,1.50
2019-03-09T07:19:38.068Z,1.63
2019-03-09T07:22:07.161Z,1.83
2019-03-09T07:24:36.199Z,1.40
2019-03-09T07:27:05.328Z,1.80
2019-03-09T07:29:34.446Z,1.40
2019-03-09T07:32:05.084Z,1.60
2019-03-09T07:34:34.150Z,1.53
2019-03-09T07:37:03.193Z,1.57
2019-03-09T07:39:32.269Z,1.67
2019-03-09T07:42:01.278Z,1.80
2019-03-09T07:44:30.356Z,1.57
2019-03-09T07:46:59.446Z,1.73
2019-03-09T07:49:28.494Z,1.90
2019-03-09T07:51:57.557Z,2.53
2019-03-09T07:54:26.661Z,1.93
2019-03-09T07:56:56.663Z,2.13
2019-03-09T07:59:25.743Z,13.83
2019-03-09T08:01:55.092Z,1.87
2019-03-09T08:04:24.229Z,2.70
2019-03-09T08:07:00.999Z,9.73
2019-03-09T08:09:32.908Z,7.27
2019-03-09T08:12:02.079Z,9.83
2019-03-09T08:14:31.232Z,3.73
2019-03-09T08:17:00.312Z,1.37
2019-03-09T08:19:29.388Z,6.80
2019-03-09T08:21:58.467Z,5.87
2019-03-09T08:24:27.552Z,6.07
2019-03-09T08:26:56.592Z,6.00
2019-03-09T08:29:25.713Z,4.63
2019-03-09T08:31:55.871Z,7.57
2019-03-09T08:34:25.057Z,4.23
2019-03-09T08:36:54.111Z,2.93
2019-03-09T08:39:23.257Z,2.50
2019-03-09T08:41:52.361Z,2.47
2019-03-09T08:44:21.648Z,2.67
2019-03-09T08:46:50.798Z,3.77
2019-03-09T08:49:20.006Z,3.90
2019-03-09T08:51:49.924Z,2.07
2019-03-09T08:54:19.010Z,2.10
2019-03-09T08:56:48.071Z,2.63
2019-03-09T08:59:17.224Z,2.60
2019-03-09T09:01:46.368Z,2.90
2019-03-09T09:04:16.296Z,2.60
2019-03-09T09:06:45.435Z,2.50
2019-03-09T09:09:14.507Z,2.40
2019-03-09T09:11:44.655Z,2.37
2019-03-09T09:14:13.752Z,2.77
2019-03-09T09:16:43.087Z,2.60
2019-03-09T09:19:12.304Z,2.70
2019-03-09T09:21:41.471Z,3.77
2019-03-09T09:24:10.702Z,2.70
2019-03-09T09:26:39.904Z,3.83
2019-03-09T09:29:11.321Z,2.57
2019-03-09T09:31:40.385Z,2.90
2019-03-09T09:34:09.528Z,3.90
2019-03-09T09:36:38.609Z,3.50
2019-03-09T09:39:09.309Z,2.70
2019-03-09T09:41:38.357Z,2.87
2019-03-09T09:44:07.493Z,3.00
2019-03-09T09:46:36.611Z,4.00
2019-03-09T09:49:05.804Z,2.80
2019-03-09T09:51:34.835Z,3.07
2019-03-09T09:54:03.911Z,2.97
2019-03-09T09:56:33.952Z,3.33
2019-03-09T09:59:03.666Z,2.60
2019-03-09T10:01:34.817Z,2.73
2019-03-09T10:04:06.150Z,3.37
2019-03-09T10:06:36.843Z,3.07
2019-03-09T10:09:07.326Z,2.00
2019-03-09T10:11:36.427Z,2.27
2019-03-09T10:14:05.625Z,2.40
2019-03-09T10:16:34.765Z,3.07
2019-03-09T10:19:03.984Z,3.97
2019-03-09T10:21:33.158Z,2.63
2019-03-09T10:24:02.215Z,3.20
2019-03-09T10:26:31.298Z,2.77
2019-03-09T10:29:00.373Z,2.87
2019-03-09T10:31:29.513Z,2.40
2019-03-09T10:33:58.538Z,2.70
2019-03-09T10:36:27.650Z,4.27
2019-03-09T10:38:56.714Z,2.47
2019-03-09T10:41:25.732Z,2.53
2019-03-09T10:43:54.809Z,2.37
2019-03-09T10:46:23.908Z,2.07
2019-03-09T10:48:55.054Z,2.50
2019-03-09T10:51:25.857Z,3.17
2019-03-09T10:53:54.923Z,1.97
2019-03-09T10:56:24.012Z,1.73
2019-03-09T10:58:53.062Z,1.80
2019-03-09T11:01:22.138Z,2.13
2019-03-09T11:03:52.363Z,3.43
2019-03-09T11:06:55.712Z,2.37
2019-03-09T11:08:56.426Z,2.57
2019-03-09T11:11:25.506Z,3.43
2019-03-09T11:13:54.588Z,3.23
2019-03-09T11:16:25.938Z,1.63
2019-03-09T11:18:54.972Z,1.60
2019-03-09T11:21:24.050Z,2.33
2019-03-09T11:23:53.308Z,1.77
2019-03-09T11:26:22.982Z,2.00
2019-03-09T11:28:52.658Z,2.90
2019-03-09T11:31:22.065Z,1.83
2019-03-09T11:33:52.154Z,2.47
2019-03-09T11:36:21.972Z,3.03
2019-03-09T11:38:52.055Z,2.53
2019-03-09T11:41:21.806Z,2.07
2019-03-09T11:43:51.173Z,6.00
2019-03-09T11:46:22.201Z,5.53
2019-03-09T11:48:51.674Z,3.63
2019-03-09T11:51:23.880Z,2.13
2019-03-09T11:53:54.905Z,1.90
2019-03-09T11:56:25.541Z,1.40
2019-03-09T11:58:55.189Z,2.13
2019-03-09T12:01:24.758Z,2.20
2019-03-09T12:03:53.955Z,1.73
2019-03-09T12:06:23.050Z,2.60
2019-03-09T12:08:52.181Z,1.40
2019-03-09T12:11:21.382Z,2.00
2019-03-09T12:13:50.603Z,1.60
2019-03-09T12:16:19.785Z,1.43
2019-03-09T12:18:49.356Z,1.57
2019-03-09T12:21:18.986Z,1.47
2019-03-09T12:23:48.714Z,1.87
2019-03-09T12:26:18.716Z,1.20
2019-03-09T12:28:47.982Z,1.23
2019-03-09T12:31:19.158Z,1.13
2019-03-09T12:33:48.502Z,1.27
2019-03-09T12:36:17.941Z,1.30
2019-03-09T12:38:47.383Z,1.37
2019-03-09T12:41:16.967Z,1.30
2019-03-09T12:43:46.241Z,1.30
2019-03-09T12:46:17.458Z,1.30
2019-03-09T12:48:48.333Z,1.40
2019-03-09T12:51:17.759Z,1.83
2019-03-09T12:53:47.265Z,1.97
2019-03-09T12:56:18.355Z,2.00
2019-03-09T12:58:47.616Z,2.07
2019-03-09T13:01:18.444Z,2.37
2019-03-09T13:03:48.298Z,1.73
2019-03-09T13:06:19.511Z,1.93
2019-03-09T13:08:48.896Z,2.20
2019-03-09T13:11:18.515Z,3.00
2019-03-09T13:13:47.709Z,1.40
2019-03-09T13:16:18.596Z,4.13
2019-03-09T13:18:49.508Z,1.50
2019-03-09T13:21:21.014Z,5.20
2019-03-09T13:23:52.854Z,1.70
2019-03-09T13:26:23.587Z,2.27
2019-03-09T13:28:53.250Z,1.07
2019-03-09T13:31:25.071Z,3.53
2019-03-09T13:33:54.442Z,1.30
2019-03-09T13:36:25.532Z,1.20
2019-03-09T13:38:55.699Z,1.23
2019-03-09T13:41:24.873Z,1.00
2019-03-09T13:43:54.265Z,1.40
2019-03-09T13:46:24.008Z,1.07
2019-03-09T13:48:53.354Z,0.53
2019-03-09T13:51:22.789Z,1.13
2019-03-09T13:53:52.282Z,0.80
2019-03-09T13:56:21.633Z,3.23
2019-03-09T13:58:50.975Z,0.80
2019-03-09T14:01:20.219Z,1.77
2019-03-09T14:03:49.286Z,2.10
2019-03-09T14:06:18.332Z,1.07
2019-03-09T14:08:47.388Z,1.73
2019-03-09T14:11:16.438Z,0.93
2019-03-09T14:13:45.501Z,2.60
2019-03-09T14:16:14.583Z,1.80
2019-03-09T14:18:43.670Z,1.70
2019-03-09T14:21:12.786Z,3.13
2019-03-09T14:23:41.863Z,1.10
2019-03-09T14:26:10.902Z,0.87
2019-03-09T14:28:39.963Z,2.43
2019-03-09T14:31:11.336Z,0.90
2019-03-09T14:33:40.399Z,1.23
2019-03-09T14:36:11.788Z,1.00
2019-03-09T14:38:40.853Z,1.53
2019-03-09T14:41:09.944Z,0.70
2019-03-09T14:43:39.032Z,0.83
2019-03-09T14:46:10.510Z,1.23
2019-03-09T14:48:39.624Z,1.33
2019-03-09T14:51:08.660Z,1.03
2019-03-09T14:53:37.712Z,0.93
2019-03-09T14:56:06.790Z,1.10
2019-03-09T14:58:35.831Z,1.50
2019-03-09T15:01:04.961Z,1.07
2019-03-09T15:03:33.992Z,1.33
2019-03-09T15:06:03.307Z,1.20
2019-03-09T15:08:32.371Z,1.10
2019-03-09T15:11:01.470Z,1.70
2019-03-09T15:13:30.642Z,1.33
2019-03-09T15:15:59.772Z,2.80
2019-03-09T15:18:28.799Z,3.07
2019-03-09T15:20:57.930Z,1.97
2019-03-09T15:23:27.009Z,2.80
2019-03-09T15:25:56.225Z,2.77
2019-03-09T15:28:25.255Z,2.67
2019-03-09T15:30:56.072Z,1.73
2019-03-09T15:33:25.647Z,2.20
2019-03-09T15:35:56.451Z,3.23
2019-03-09T15:38:25.594Z,1.87
2019-03-09T15:40:56.249Z,2.33
2019-03-09T15:43:25.347Z,2.47
2019-03-09T15:45:54.442Z,1.70
2019-03-09T15:48:24.058Z,2.73
2019-03-09T15:50:53.241Z,3.67
2019-03-09T15:53:22.377Z,2.30
2019-03-09T15:55:51.505Z,3.63
2019-03-09T15:58:20.572Z,4.23
2019-03-09T16:00:49.771Z,2.87
2019-03-09T16:03:18.868Z,2.60
2019-03-09T16:05:47.989Z,3.00
2019-03-09T16:08:17.077Z,3.13
2019-03-09T16:10:46.168Z,2.10
2019-03-09T16:13:15.228Z,2.30
2019-03-09T16:15:44.375Z,5.90
2019-03-09T16:18:13.475Z,5.63
2019-03-09T16:20:42.519Z,5.30
2019-03-09T16:23:11.705Z,4.23
2019-03-09T16:25:40.749Z,2.37
2019-03-09T16:28:09.900Z,6.50
2019-03-09T16:30:39.015Z,5.63
2019-03-09T16:33:08.159Z,3.50
2019-03-09T16:35:37.302Z,5.00
2019-03-09T16:38:06.422Z,8.40
2019-03-09T16:40:40.421Z,5.17
2019-03-09T16:43:06.447Z,3.10
2019-03-09T16:45:35.504Z,5.40
2019-03-09T16:48:04.620Z,3.80
2019-03-09T16:50:33.658Z,4.20
2019-03-09T16:53:02.703Z,6.03
2019-03-09T16:55:33.065Z,2.63
2019-03-09T16:58:02.316Z,6.27
2019-03-09T17:00:31.408Z,4.30
2019-03-09T17:03:00.470Z,6.23
2019-03-09T17:05:29.575Z,6.23
2019-03-09T17:07:58.703Z,9.70
2019-03-09T17:10:27.844Z,5.07
2019-03-09T17:12:57.320Z,5.70
2019-03-09T17:15:26.434Z,7.83
2019-03-09T17:17:55.526Z,4.80
2019-03-09T17:20:24.568Z,9.27
2019-03-09T17:22:53.725Z,7.83
2019-03-09T17:25:22.792Z,7.57
2019-03-09T17:27:51.917Z,4.60
2019-03-09T17:30:21.000Z,7.27
2019-03-09T17:32:51.512Z,7.87
2019-03-09T17:35:25.683Z,8.07
2019-03-09T17:37:54.871Z,9.77
2019-03-09T17:40:24.023Z,6.17
2019-03-09T17:42:56.510Z,8.70
2019-03-09T17:45:27.126Z,7.43
2019-03-09T17:47:56.244Z,10.80
2019-03-09T17:50:25.366Z,6.47
2019-03-09T17:52:56.531Z,6.87
2019-03-09T17:55:25.648Z,11.93
2019-03-09T17:57:54.707Z,9.83
2019-03-09T18:00:25.865Z,14.40
2019-03-09T18:02:55.035Z,9.87
2019-03-09T18:05:24.137Z,14.67
2019-03-09T18:07:53.239Z,8.50
2019-03-09T18:10:29.658Z,9.43
2019-03-09T18:12:58.805Z,12.70
2019-03-09T18:15:29.437Z,9.90
2019-03-09T18:17:58.535Z,9.27
2019-03-09T18:20:27.788Z,11.03
2019-03-09T18:22:56.939Z,9.60
2019-03-09T18:25:26.173Z,13.53
2019-03-09T18:27:55.280Z,10.57
2019-03-09T18:30:24.381Z,11.13
2019-03-09T18:32:53.474Z,9.87
2019-03-09T18:35:22.594Z,13.97
2019-03-09T18:37:51.777Z,9.63
2019-03-09T18:40:20.968Z,10.67
2019-03-09T18:42:50.153Z,12.40
2019-03-09T18:45:19.432Z,12.70
2019-03-09T18:47:48.614Z,11.97
2019-03-09T18:50:17.796Z,20.57
2019-03-09T18:52:48.756Z,14.40
2019-03-09T18:55:17.877Z,19.50
2019-03-09T18:57:47.041Z,11.37
2019-03-09T19:00:17.212Z,13.50
2019-03-09T19:02:46.418Z,15.20
2019-03-09T19:05:17.374Z,16.20
2019-03-09T19:07:47.816Z,14.97
2019-03-09T19:10:18.093Z,16.37
2019-03-09T19:12:50.402Z,17.03
2019-03-09T19:15:20.855Z,14.80
2019-03-09T19:17:49.984Z,13.47
2019-03-09T19:20:19.158Z,18.97
2019-03-09T19:22:48.256Z,15.40
2019-03-09T19:25:17.436Z,12.73
2019-03-09T19:27:46.469Z,15.23
2019-03-09T19:30:16.368Z,13.53
2019-03-09T19:32:47.862Z,16.00
2019-03-09T19:35:18.394Z,16.90
2019-03-09T19:37:49.611Z,13.73
2019-03-09T19:40:18.725Z,14.17
2019-03-09T19:42:47.830Z,15.63
2019-03-09T19:45:16.973Z,17.37
2019-03-09T19:47:46.142Z,14.10
2019-03-09T19:50:16.896Z,14.73
2019-03-09T19:52:46.049Z,18.47
2019-03-09T19:55:15.282Z,18.37
2019-03-09T19:57:48.988Z,16.17
2019-03-09T20:00:18.127Z,16.30
2019-03-09T20:02:47.276Z,14.80
2019-03-09T20:05:17.509Z,15.07
2019-03-09T20:07:46.634Z,16.47
2019-03-09T20:10:15.680Z,16.53
2019-03-09T20:12:48.077Z,16.17
2019-03-09T20:15:18.360Z,14.87
2019-03-09T20:17:47.457Z,13.77
2019-03-09T20:20:16.548Z,22.03
2019-03-09T20:22:45.739Z,19.17
2019-03-09T20:25:14.876Z,12.03
2019-03-09T20:27:44.010Z,17.83
2019-03-09T20:30:15.827Z,13.63
2019-03-09T20:32:48.514Z,15.60
2019-03-09T20:35:19.051Z,15.13
2019-03-09T20:37:48.309Z,12.63
2019-03-09T20:40:17.459Z,16.03
2019-03-09T20:42:46.665Z,16.57
2019-03-09T20:45:15.809Z,18.30
2019-03-09T20:47:44.947Z,13.50
2019-03-09T20:50:14.947Z,17.03
2019-03-09T20:52:44.119Z,16.67
2019-03-09T20:55:13.315Z,12.20
2019-03-09T20:57:42.449Z,15.87
2019-03-09T21:00:13.995Z,12.43
2019-03-09T21:02:44.336Z,19.80
2019-03-09T21:05:13.602Z,11.63
2019-03-09T21:07:42.787Z,13.73
2019-03-09T21:10:12.880Z,14.33
2019-03-09T21:12:55.559Z,11.43
2019-03-09T21:15:26.867Z,13.50
2019-03-09T21:17:57.615Z,14.00
2019-03-09T21:20:26.742Z,11.47
2019-03-09T21:22:57.660Z,13.40
2019-03-09T21:25:30.999Z,12.63
2019-03-09T21:28:00.099Z,16.50
2019-03-09T21:30:29.219Z,13.70
2019-03-09T21:33:00.130Z,15.60
2019-03-09T21:35:29.171Z,17.53
2019-03-09T21:37:58.310Z,13.23
2019-03-09T21:40:29.387Z,19.07
2019-03-09T21:42:58.442Z,13.10
2019-03-09T21:45:27.609Z,15.63
2019-03-09T21:47:58.979Z,13.43
2019-03-09T21:50:28.139Z,17.50
2019-03-09T21:52:57.333Z,17.57
2019-03-09T21:55:26.480Z,26.77
2019-03-09T21:57:55.603Z,16.33
2019-03-09T22:00:24.817Z,24.17
2019-03-09T22:02:53.942Z,16.40
2019-03-09T22:05:23.106Z,16.80
2019-03-09T22:07:52.246Z,28.17
2019-03-09T22:10:21.353Z,15.03
2019-03-09T22:12:50.511Z,17.90
2019-03-09T22:15:21.813Z,13.60
2019-03-09T22:17:52.310Z,11.60
2019-03-09T22:20:22.455Z,13.27
2019-03-09T22:22:52.934Z,13.73
2019-03-09T22:25:22.066Z,17.47
2019-03-09T22:27:52.178Z,17.83
2019-03-09T22:30:21.373Z,13.00
2019-03-09T22:32:50.556Z,11.37
2019-03-09T22:35:19.712Z,17.17
2019-03-09T22:37:48.817Z,11.33
2019-03-09T22:40:18.241Z,16.23
2019-03-09T22:42:49.119Z,12.20
2019-03-09T22:45:18.148Z,12.03
2019-03-09T22:47:49.527Z,13.13
2019-03-09T22:50:18.592Z,13.40
2019-03-09T22:52:47.689Z,12.43
2019-03-09T22:55:16.874Z,13.33
2019-03-09T22:57:46.040Z,13.60
2019-03-09T23:00:16.887Z,14.03
2019-03-09T23:02:46.048Z,11.70
2019-03-09T23:05:15.189Z,16.10
2019-03-09T23:07:44.349Z,12.87
2019-03-09T23:10:14.802Z,12.80
2019-03-09T23:12:44.693Z,9.50
2019-03-09T23:15:14.550Z,13.13
2019-03-09T23:17:43.730Z,14.67
2019-03-09T23:20:13.089Z,15.73
2019-03-09T23:22:42.138Z,15.20
2019-03-09T23:25:12.274Z,12.63
2019-03-09T23:27:41.351Z,14.97
2019-03-09T23:30:13.857Z,10.47
2019-03-09T23:32:42.950Z,14.80
2019-03-09T23:35:12.085Z,11.80
2019-03-09T23:37:41.170Z,14.53
2019-03-09T23:40:12.957Z,15.87
2019-03-09T23:42:42.061Z,16.33
2019-03-09T23:45:12.124Z,16.60
2019-03-09T23:47:41.163Z,18.17
2019-03-09T23:50:11.450Z,12.67
2019-03-09T23:52:40.518Z,15.60
2019-03-09T23:55:09.579Z,11.67
2019-03-09T23:57:38.665Z,11.27
